sensor_id;sensor_type;location;lat;lon;timestamp;P1;durP1;ratioP1;P2;durP2;ratioP2
7231;SDS011;3657;49.630;11.018;2024-03-23T00:53:11;29.00;;;27.73;;
7231;SDS011;3657;49.630;11.018;2024-03-23T00:55:38;31.13;;;29.73;;
7231;SDS011;3657;49.630;11.018;2024-03-23T00:58:04;30.30;;;28.17;;
7231;SDS011;3657;49.630;11.018;2024-03-23T01:00:30;29.60;;;28.33;;
7231;SDS011;3657;49.630;11.018;2024-03-23T01:02:56;30.70;;;29.23;;
7231;SDS011;3657;49.630;11.018;2024-03-23T01:05:23;31.07;;;29.47;;
7231;SDS011;3657;49.630;11.018;2024-03-23T01:07:49;30.93;;;29.43;;
7231;SDS011;3657;49.630;11.018;2024-03-23T01:10:17;29.97;;;28.67;;
7231;SDS011;3657;49.630;11.018;2024-03-23T01:12:43;30.07;;;28.70;;
7231;SDS011;3657;49.630;11.018;2024-03-23T01:15:10;31.97;;;30.37;;
7231;SDS011;3657;49.630;11.018;2024-03-23T01:17:36;31.53;;;30.07;;
7231;SDS011;3657;49.630;11.018;2024-03-23T01:20:03;32.70;;;31.00;;
7231;SDS011;3657;49.630;11.018;2024-03-23T01:22:32;31.70;;;30.20;;
7231;SDS011;3657;49.630;11.018;2024-03-23T01:24:59;32.53;;;30.60;;
7231;SDS011;3657;49.630;11.018;2024-03-23T01:27:26;30.30;;;28.80;;
7231;SDS011;3657;49.630;11.018;2024-03-23T01:29:53;30.73;;;29.20;;
7231;SDS011;3657;49.630;11.018;2024-03-23T01:32:19;30.27;;;28.77;;
7231;SDS011;3657;49.630;11.018;2024-03-23T01:34:46;31.80;;;30.37;;
7231;SDS011;3657;49.630;11.018;2024-03-23T01:37:12;33.17;;;31.63;;
7231;SDS011;3657;49.630;11.018;2024-03-23T01:39:39;29.17;;;27.90;;
7231;SDS011;3657;49.630;11.018;2024-03-23T01:42:05;32.00;;;30.50;;
7231;SDS011;3657;49.630;11.018;2024-03-23T01:44:33;31.20;;;29.60;;
7231;SDS011;3657;49.630;11.018;2024-03-23T01:46:59;30.83;;;29.53;;
7231;SDS011;3657;49.630;11.018;2024-03-23T01:49:29;32.03;;;30.57;;
7231;SDS011;3657;49.630;11.018;2024-03-23T01:51:55;29.70;;;28.50;;
7231;SDS011;3657;49.630;11.018;2024-03-23T01:54:23;30.97;;;29.63;;
7231;SDS011;3657;49.630;11.018;2024-03-23T01:56:50;31.10;;;29.40;;
7231;SDS011;3657;49.630;11.018;2024-03-23T01:59:17;30.93;;;29.53;;
7231;SDS011;3657;49.630;11.018;2024-03-23T02:01:44;33.83;;;32.03;;
7231;SDS011;3657;49.630;11.018;2024-03-23T02:04:10;33.53;;;31.63;;
7231;SDS011;3657;49.630;11.018;2024-03-23T02:06:38;32.07;;;30.27;;
7231;SDS011;3657;49.630;11.018;2024-03-23T02:09:05;31.10;;;29.60;;
7231;SDS011;3657;49.630;11.018;2024-03-23T02:11:31;33.30;;;31.10;;
7231;SDS011;3657;49.630;11.018;2024-03-23T02:13:58;31.83;;;30.27;;
7231;SDS011;3657;49.630;11.018;2024-03-23T02:16:24;32.43;;;30.47;;
7231;SDS011;3657;49.630;11.018;2024-03-23T02:18:52;30.90;;;29.40;;
7231;SDS011;3657;49.630;11.018;2024-03-23T02:21:18;30.80;;;29.40;;
7231;SDS011;3657;49.630;11.018;2024-03-23T02:23:46;32.93;;;31.13;;
7231;SDS011;3657;49.630;11.018;2024-03-23T02:26:11;31.17;;;29.67;;
7231;SDS011;3657;49.630;11.018;2024-03-23T02:28:39;34.43;;;32.80;;
7231;SDS011;3657;49.630;11.018;2024-03-23T02:31:04;32.63;;;30.93;;
7231;SDS011;3657;49.630;11.018;2024-03-23T02:33:31;32.57;;;31.07;;
7231;SDS011;3657;49.630;11.018;2024-03-23T02:35:59;31.37;;;29.90;;
7231;SDS011;3657;49.630;11.018;2024-03-23T02:38:29;32.77;;;31.10;;
7231;SDS011;3657;49.630;11.018;2024-03-23T02:41:00;32.73;;;30.97;;
7231;SDS011;3657;49.630;11.018;2024-03-23T02:43:28;30.83;;;29.33;;
7231;SDS011;3657;49.630;11.018;2024-03-23T02:45:54;32.30;;;30.80;;
7231;SDS011;3657;49.630;11.018;2024-03-23T02:48:22;33.63;;;31.67;;
7231;SDS011;3657;49.630;11.018;2024-03-23T02:50:48;33.53;;;31.83;;
7231;SDS011;3657;49.630;11.018;2024-03-23T02:53:15;34.07;;;32.23;;
7231;SDS011;3657;49.630;11.018;2024-03-23T02:55:41;34.27;;;32.40;;
7231;SDS011;3657;49.630;11.018;2024-03-23T02:58:09;33.97;;;32.17;;
7231;SDS011;3657;49.630;11.018;2024-03-23T03:00:35;33.40;;;31.70;;
7231;SDS011;3657;49.630;11.018;2024-03-23T03:03:02;33.50;;;31.70;;
7231;SDS011;3657;49.630;11.018;2024-03-23T03:05:28;34.63;;;32.80;;
7231;SDS011;3657;49.630;11.018;2024-03-23T03:07:55;33.20;;;31.60;;
7231;SDS011;3657;49.630;11.018;2024-03-23T03:10:21;33.73;;;31.97;;
7231;SDS011;3657;49.630;11.018;2024-03-23T03:12:47;32.80;;;30.80;;
7231;SDS011;3657;49.630;11.018;2024-03-23T03:15:14;36.00;;;34.13;;
7231;SDS011;3657;49.630;11.018;2024-03-23T03:17:41;33.23;;;31.60;;
7231;SDS011;3657;49.630;11.018;2024-03-23T03:20:07;34.87;;;32.87;;
7231;SDS011;3657;49.630;11.018;2024-03-23T03:22:38;33.63;;;31.97;;
7231;SDS011;3657;49.630;11.018;2024-03-23T03:25:04;34.03;;;32.23;;
7231;SDS011;3657;49.630;11.018;2024-03-23T03:27:32;34.03;;;32.33;;
7231;SDS011;3657;49.630;11.018;2024-03-23T03:29:58;33.63;;;31.63;;
7231;SDS011;3657;49.630;11.018;2024-03-23T03:32:27;32.13;;;30.37;;
7231;SDS011;3657;49.630;11.018;2024-03-23T03:34:54;32.83;;;31.03;;
7231;SDS011;3657;49.630;11.018;2024-03-23T03:37:20;34.53;;;32.83;;
7231;SDS011;3657;49.630;11.018;2024-03-23T03:39:47;33.97;;;32.27;;
7231;SDS011;3657;49.630;11.018;2024-03-23T03:42:14;34.20;;;32.40;;
7231;SDS011;3657;49.630;11.018;2024-03-23T03:44:40;33.47;;;31.67;;
7231;SDS011;3657;49.630;11.018;2024-03-23T03:47:07;34.80;;;32.40;;
7231;SDS011;3657;49.630;11.018;2024-03-23T03:49:34;33.90;;;32.00;;
7231;SDS011;3657;49.630;11.018;2024-03-23T03:52:01;31.60;;;29.93;;
7231;SDS011;3657;49.630;11.018;2024-03-23T03:54:27;31.63;;;30.10;;
7231;SDS011;3657;49.630;11.018;2024-03-23T03:56:53;35.07;;;32.97;;
7231;SDS011;3657;49.630;11.018;2024-03-23T03:59:19;35.03;;;33.13;;
7231;SDS011;3657;49.630;11.018;2024-03-23T04:01:46;32.87;;;30.97;;
7231;SDS011;3657;49.630;11.018;2024-03-23T04:04:12;34.27;;;32.30;;
7231;SDS011;3657;49.630;11.018;2024-03-23T04:06:42;32.30;;;30.70;;
7231;SDS011;3657;49.630;11.018;2024-03-23T04:09:08;33.73;;;32.07;;
7231;SDS011;3657;49.630;11.018;2024-03-23T04:11:36;31.13;;;29.63;;
7231;SDS011;3657;49.630;11.018;2024-03-23T04:14:02;33.30;;;31.67;;
7231;SDS011;3657;49.630;11.018;2024-03-23T04:16:28;34.83;;;32.93;;
7231;SDS011;3657;49.630;11.018;2024-03-23T04:18:56;35.23;;;33.43;;
7231;SDS011;3657;49.630;11.018;2024-03-23T04:21:22;32.20;;;30.23;;
7231;SDS011;3657;49.630;11.018;2024-03-23T04:23:50;32.90;;;31.30;;
7231;SDS011;3657;49.630;11.018;2024-03-23T04:26:16;32.47;;;30.77;;
7231;SDS011;3657;49.630;11.018;2024-03-23T04:28:42;32.13;;;30.47;;
7231;SDS011;3657;49.630;11.018;2024-03-23T04:31:08;30.97;;;29.53;;
7231;SDS011;3657;49.630;11.018;2024-03-23T04:33:35;32.43;;;30.53;;
7231;SDS011;3657;49.630;11.018;2024-03-23T04:36:01;33.60;;;31.80;;
7231;SDS011;3657;49.630;11.018;2024-03-23T04:38:28;32.47;;;30.57;;
7231;SDS011;3657;49.630;11.018;2024-03-23T04:40:57;34.13;;;32.33;;
7231;SDS011;3657;49.630;11.018;2024-03-23T04:43:25;32.40;;;30.33;;
7231;SDS011;3657;49.630;11.018;2024-03-23T04:45:51;34.17;;;32.27;;
7231;SDS011;3657;49.630;11.018;2024-03-23T04:48:19;33.83;;;31.90;;
7231;SDS011;3657;49.630;11.018;2024-03-23T04:50:47;33.17;;;31.27;;
7231;SDS011;3657;49.630;11.018;2024-03-23T04:53:13;32.53;;;30.80;;
7231;SDS011;3657;49.630;11.018;2024-03-23T04:55:39;27.90;;;26.50;;
7231;SDS011;3657;49.630;11.018;2024-03-23T04:58:07;35.93;;;33.77;;
7231;SDS011;3657;49.630;11.018;2024-03-23T05:00:33;32.83;;;31.03;;
7231;SDS011;3657;49.630;11.018;2024-03-23T05:03:00;33.07;;;31.37;;
7231;SDS011;3657;49.630;11.018;2024-03-23T05:05:26;33.87;;;31.97;;
7231;SDS011;3657;49.630;11.018;2024-03-23T05:07:53;35.50;;;33.60;;
7231;SDS011;3657;49.630;11.018;2024-03-23T05:10:18;34.57;;;32.50;;
7231;SDS011;3657;49.630;11.018;2024-03-23T05:12:45;32.77;;;31.13;;
7231;SDS011;3657;49.630;11.018;2024-03-23T05:15:12;32.80;;;31.10;;
7231;SDS011;3657;49.630;11.018;2024-03-23T05:17:39;34.77;;;33.10;;
7231;SDS011;3657;49.630;11.018;2024-03-23T05:20:05;31.23;;;29.63;;
7231;SDS011;3657;49.630;11.018;2024-03-23T05:22:34;28.30;;;26.77;;
7231;SDS011;3657;49.630;11.018;2024-03-23T05:25:00;33.27;;;31.47;;
7231;SDS011;3657;49.630;11.018;2024-03-23T05:27:29;32.50;;;31.00;;
7231;SDS011;3657;49.630;11.018;2024-03-23T05:29:55;32.27;;;30.67;;
7231;SDS011;3657;49.630;11.018;2024-03-23T05:32:23;32.93;;;31.33;;
7231;SDS011;3657;49.630;11.018;2024-03-23T05:34:49;32.13;;;30.40;;
7231;SDS011;3657;49.630;11.018;2024-03-23T05:37:20;33.10;;;31.30;;
7231;SDS011;3657;49.630;11.018;2024-03-23T05:39:47;33.83;;;32.03;;
7231;SDS011;3657;49.630;11.018;2024-03-23T05:42:14;31.37;;;29.80;;
7231;SDS011;3657;49.630;11.018;2024-03-23T05:44:42;31.87;;;30.37;;
7231;SDS011;3657;49.630;11.018;2024-03-23T05:47:09;32.70;;;31.10;;
7231;SDS011;3657;49.630;11.018;2024-03-23T05:49:37;32.50;;;30.87;;
7231;SDS011;3657;49.630;11.018;2024-03-23T05:52:03;34.20;;;32.40;;
7231;SDS011;3657;49.630;11.018;2024-03-23T05:54:30;31.93;;;30.43;;
7231;SDS011;3657;49.630;11.018;2024-03-23T05:56:56;32.77;;;31.07;;
7231;SDS011;3657;49.630;11.018;2024-03-23T05:59:22;30.70;;;29.10;;
7231;SDS011;3657;49.630;11.018;2024-03-23T06:01:48;31.67;;;30.07;;
7231;SDS011;3657;49.630;11.018;2024-03-23T06:04:15;31.10;;;29.80;;
7231;SDS011;3657;49.630;11.018;2024-03-23T06:06:42;28.87;;;27.50;;
7231;SDS011;3657;49.630;11.018;2024-03-23T06:09:09;30.00;;;28.40;;
7231;SDS011;3657;49.630;11.018;2024-03-23T06:11:35;32.07;;;30.47;;
7231;SDS011;3657;49.630;11.018;2024-03-23T06:14:02;31.30;;;30.00;;
7231;SDS011;3657;49.630;11.018;2024-03-23T06:16:28;30.83;;;29.23;;
7231;SDS011;3657;49.630;11.018;2024-03-23T06:18:55;31.73;;;30.00;;
7231;SDS011;3657;49.630;11.018;2024-03-23T06:21:21;32.00;;;30.37;;
7231;SDS011;3657;49.630;11.018;2024-03-23T06:23:51;30.47;;;28.90;;
7231;SDS011;3657;49.630;11.018;2024-03-23T06:26:18;29.40;;;28.20;;
7231;SDS011;3657;49.630;11.018;2024-03-23T06:28:45;30.87;;;29.10;;
7231;SDS011;3657;49.630;11.018;2024-03-23T06:31:10;30.60;;;29.20;;
7231;SDS011;3657;49.630;11.018;2024-03-23T06:33:37;32.20;;;30.60;;
7231;SDS011;3657;49.630;11.018;2024-03-23T06:36:04;31.80;;;30.30;;
7231;SDS011;3657;49.630;11.018;2024-03-23T06:38:31;29.27;;;28.07;;
7231;SDS011;3657;49.630;11.018;2024-03-23T06:40:58;31.27;;;29.43;;
7231;SDS011;3657;49.630;11.018;2024-03-23T06:43:25;32.30;;;30.63;;
7231;SDS011;3657;49.630;11.018;2024-03-23T06:45:54;33.40;;;31.57;;
7231;SDS011;3657;49.630;11.018;2024-03-23T06:48:21;33.17;;;31.47;;
7231;SDS011;3657;49.630;11.018;2024-03-23T06:50:49;32.10;;;30.50;;
7231;SDS011;3657;49.630;11.018;2024-03-23T06:53:15;31.50;;;30.00;;
7231;SDS011;3657;49.630;11.018;2024-03-23T06:55:41;31.27;;;29.77;;
7231;SDS011;3657;49.630;11.018;2024-03-23T06:58:17;29.20;;;27.80;;
7231;SDS011;3657;49.630;11.018;2024-03-23T07:00:44;30.53;;;29.03;;
7231;SDS011;3657;49.630;11.018;2024-03-23T07:03:10;31.57;;;29.80;;
7231;SDS011;3657;49.630;11.018;2024-03-23T07:05:36;31.53;;;29.93;;
7231;SDS011;3657;49.630;11.018;2024-03-23T07:08:03;28.73;;;27.40;;
7231;SDS011;3657;49.630;11.018;2024-03-23T07:10:29;30.53;;;28.93;;
7231;SDS011;3657;49.630;11.018;2024-03-23T07:12:56;27.97;;;26.57;;
7231;SDS011;3657;49.630;11.018;2024-03-23T07:15:23;31.40;;;29.60;;
7231;SDS011;3657;49.630;11.018;2024-03-23T07:17:50;30.30;;;28.80;;
7231;SDS011;3657;49.630;11.018;2024-03-23T07:20:16;30.97;;;29.37;;
7231;SDS011;3657;49.630;11.018;2024-03-23T07:22:42;27.10;;;25.80;;
7231;SDS011;3657;49.630;11.018;2024-03-23T07:25:10;29.10;;;27.63;;
7231;SDS011;3657;49.630;11.018;2024-03-23T07:27:37;26.63;;;25.33;;
7231;SDS011;3657;49.630;11.018;2024-03-23T07:30:03;30.07;;;28.57;;
7231;SDS011;3657;49.630;11.018;2024-03-23T07:32:31;29.73;;;28.10;;
7231;SDS011;3657;49.630;11.018;2024-03-23T07:34:57;29.17;;;27.67;;
7231;SDS011;3657;49.630;11.018;2024-03-23T07:37:24;29.07;;;27.77;;
7231;SDS011;3657;49.630;11.018;2024-03-23T07:39:50;29.40;;;27.90;;
7231;SDS011;3657;49.630;11.018;2024-03-23T07:42:17;29.50;;;28.00;;
7231;SDS011;3657;49.630;11.018;2024-03-23T07:44:43;27.43;;;25.97;;
7231;SDS011;3657;49.630;11.018;2024-03-23T07:47:11;30.90;;;29.27;;
7231;SDS011;3657;49.630;11.018;2024-03-23T07:49:38;27.43;;;26.07;;
7231;SDS011;3657;49.630;11.018;2024-03-23T07:52:06;27.90;;;26.60;;
7231;SDS011;3657;49.630;11.018;2024-03-23T07:54:33;29.03;;;27.63;;
7231;SDS011;3657;49.630;11.018;2024-03-23T07:57:00;25.57;;;24.50;;
7231;SDS011;3657;49.630;11.018;2024-03-23T07:59:26;27.17;;;25.83;;
7231;SDS011;3657;49.630;11.018;2024-03-23T08:01:56;25.60;;;24.43;;
7231;SDS011;3657;49.630;11.018;2024-03-23T08:04:22;25.10;;;23.87;;
7231;SDS011;3657;49.630;11.018;2024-03-23T08:06:50;24.73;;;23.63;;
7231;SDS011;3657;49.630;11.018;2024-03-23T08:09:16;24.53;;;23.43;;
7231;SDS011;3657;49.630;11.018;2024-03-23T08:11:43;25.30;;;24.30;;
7231;SDS011;3657;49.630;11.018;2024-03-23T08:14:11;25.70;;;24.47;;
7231;SDS011;3657;49.630;11.018;2024-03-23T08:16:38;25.03;;;24.03;;
7231;SDS011;3657;49.630;11.018;2024-03-23T08:19:04;22.40;;;21.63;;
7231;SDS011;3657;49.630;11.018;2024-03-23T08:21:33;23.97;;;23.17;;
7231;SDS011;3657;49.630;11.018;2024-03-23T08:24:00;21.33;;;20.73;;
7231;SDS011;3657;49.630;11.018;2024-03-23T08:26:28;22.50;;;21.80;;
7231;SDS011;3657;49.630;11.018;2024-03-23T08:28:54;19.87;;;19.47;;
7231;SDS011;3657;49.630;11.018;2024-03-23T08:31:21;19.80;;;19.30;;
7231;SDS011;3657;49.630;11.018;2024-03-23T08:33:47;20.33;;;19.83;;
7231;SDS011;3657;49.630;11.018;2024-03-23T08:36:13;21.67;;;20.83;;
7231;SDS011;3657;49.630;11.018;2024-03-23T08:38:39;19.53;;;19.03;;
7231;SDS011;3657;49.630;11.018;2024-03-23T08:41:08;18.43;;;18.03;;
7231;SDS011;3657;49.630;11.018;2024-03-23T08:43:36;20.00;;;19.50;;
7231;SDS011;3657;49.630;11.018;2024-03-23T08:46:07;19.00;;;18.60;;
7231;SDS011;3657;49.630;11.018;2024-03-23T08:48:34;20.90;;;20.40;;
7231;SDS011;3657;49.630;11.018;2024-03-23T08:51:02;18.57;;;18.07;;
7231;SDS011;3657;49.630;11.018;2024-03-23T08:53:28;20.63;;;20.13;;
7231;SDS011;3657;49.630;11.018;2024-03-23T08:55:55;18.87;;;18.37;;
7231;SDS011;3657;49.630;11.018;2024-03-23T08:58:24;19.63;;;19.13;;
7231;SDS011;3657;49.630;11.018;2024-03-23T09:00:52;18.03;;;17.63;;
7231;SDS011;3657;49.630;11.018;2024-03-23T09:03:21;16.77;;;16.47;;
7231;SDS011;3657;49.630;11.018;2024-03-23T09:05:48;16.10;;;15.80;;
7231;SDS011;3657;49.630;11.018;2024-03-23T09:08:14;15.73;;;15.43;;
7231;SDS011;3657;49.630;11.018;2024-03-23T09:10:41;15.93;;;15.63;;
7231;SDS011;3657;49.630;11.018;2024-03-23T09:13:07;15.47;;;15.17;;
7231;SDS011;3657;49.630;11.018;2024-03-23T09:15:36;15.07;;;14.77;;
7231;SDS011;3657;49.630;11.018;2024-03-23T09:18:10;13.60;;;13.40;;
7231;SDS011;3657;49.630;11.018;2024-03-23T09:20:40;14.77;;;14.57;;
7231;SDS011;3657;49.630;11.018;2024-03-23T09:23:05;14.90;;;14.70;;
7231;SDS011;3657;49.630;11.018;2024-03-23T09:25:35;15.70;;;15.50;;
7231;SDS011;3657;49.630;11.018;2024-03-23T09:28:01;15.50;;;15.30;;
7231;SDS011;3657;49.630;11.018;2024-03-23T09:30:28;15.00;;;14.70;;
7231;SDS011;3657;49.630;11.018;2024-03-23T09:32:55;14.43;;;14.23;;
7231;SDS011;3657;49.630;11.018;2024-03-23T09:35:22;14.97;;;14.77;;
7231;SDS011;3657;49.630;11.018;2024-03-23T09:37:48;14.30;;;14.10;;
7231;SDS011;3657;49.630;11.018;2024-03-23T09:40:15;15.97;;;15.70;;
7231;SDS011;3657;49.630;11.018;2024-03-23T09:42:40;14.30;;;14.10;;
7231;SDS011;3657;49.630;11.018;2024-03-23T09:45:15;15.93;;;15.63;;
7231;SDS011;3657;49.630;11.018;2024-03-23T09:47:42;14.57;;;14.37;;
7231;SDS011;3657;49.630;11.018;2024-03-23T09:50:12;14.27;;;14.07;;
7231;SDS011;3657;49.630;11.018;2024-03-23T09:52:38;14.93;;;14.73;;
7231;SDS011;3657;49.630;11.018;2024-03-23T09:55:05;13.73;;;13.53;;
7231;SDS011;3657;49.630;11.018;2024-03-23T09:57:31;15.23;;;14.33;;
7231;SDS011;3657;49.630;11.018;2024-03-23T09:59:58;14.03;;;13.83;;
7231;SDS011;3657;49.630;11.018;2024-03-23T10:02:24;13.53;;;13.33;;
7231;SDS011;3657;49.630;11.018;2024-03-23T10:04:51;15.03;;;14.83;;
7231;SDS011;3657;49.630;11.018;2024-03-23T10:07:19;14.77;;;14.47;;
7231;SDS011;3657;49.630;11.018;2024-03-23T10:09:46;14.90;;;14.70;;
7231;SDS011;3657;49.630;11.018;2024-03-23T10:12:15;15.40;;;15.10;;
7231;SDS011;3657;49.630;11.018;2024-03-23T10:14:43;14.33;;;14.13;;
7231;SDS011;3657;49.630;11.018;2024-03-23T10:17:11;14.83;;;14.63;;
7231;SDS011;3657;49.630;11.018;2024-03-23T10:19:40;14.60;;;14.30;;
7231;SDS011;3657;49.630;11.018;2024-03-23T10:22:07;15.40;;;15.20;;
7231;SDS011;3657;49.630;11.018;2024-03-23T10:24:36;14.27;;;13.97;;
7231;SDS011;3657;49.630;11.018;2024-03-23T10:27:02;15.60;;;15.33;;
7231;SDS011;3657;49.630;11.018;2024-03-23T10:29:29;15.70;;;15.40;;
7231;SDS011;3657;49.630;11.018;2024-03-23T10:31:55;16.43;;;16.13;;
7231;SDS011;3657;49.630;11.018;2024-03-23T10:34:34;17.17;;;16.77;;
7231;SDS011;3657;49.630;11.018;2024-03-23T10:37:01;15.63;;;15.33;;
7231;SDS011;3657;49.630;11.018;2024-03-23T10:39:29;16.27;;;15.97;;
7231;SDS011;3657;49.630;11.018;2024-03-23T10:41:58;15.97;;;15.57;;
7231;SDS011;3657;49.630;11.018;2024-03-23T10:44:28;16.47;;;16.07;;
7231;SDS011;3657;49.630;11.018;2024-03-23T10:46:55;15.70;;;15.30;;
7231;SDS011;3657;49.630;11.018;2024-03-23T10:49:25;17.70;;;17.30;;
7231;SDS011;3657;49.630;11.018;2024-03-23T10:51:51;17.40;;;16.90;;
7231;SDS011;3657;49.630;11.018;2024-03-23T10:54:18;17.20;;;16.60;;
7231;SDS011;3657;49.630;11.018;2024-03-23T10:56:45;16.00;;;15.70;;
7231;SDS011;3657;49.630;11.018;2024-03-23T10:59:14;16.60;;;16.30;;
7231;SDS011;3657;49.630;11.018;2024-03-23T11:01:53;15.57;;;15.27;;
7231;SDS011;3657;49.630;11.018;2024-03-23T11:04:30;17.20;;;16.70;;
7231;SDS011;3657;49.630;11.018;2024-03-23T11:06:57;17.17;;;16.70;;
7231;SDS011;3657;49.630;11.018;2024-03-23T11:09:39;15.93;;;15.63;;
7231;SDS011;3657;49.630;11.018;2024-03-23T11:15:02;15.87;;;15.43;;
7231;SDS011;3657;49.630;11.018;2024-03-23T11:17:29;16.57;;;16.10;;
7231;SDS011;3657;49.630;11.018;2024-03-23T11:19:57;15.93;;;15.43;;
7231;SDS011;3657;49.630;11.018;2024-03-23T11:22:39;15.93;;;15.53;;
7231;SDS011;3657;49.630;11.018;2024-03-23T11:25:17;17.27;;;16.77;;
7231;SDS011;3657;49.630;11.018;2024-03-23T11:27:45;16.10;;;15.70;;
7231;SDS011;3657;49.630;11.018;2024-03-23T11:30:15;15.33;;;15.03;;
7231;SDS011;3657;49.630;11.018;2024-03-23T11:32:42;17.63;;;17.23;;
7231;SDS011;3657;49.630;11.018;2024-03-23T11:35:09;17.90;;;17.20;;
7231;SDS011;3657;49.630;11.018;2024-03-23T11:37:36;18.00;;;17.40;;
7231;SDS011;3657;49.630;11.018;2024-03-23T11:40:18;17.30;;;16.90;;
7231;SDS011;3657;49.630;11.018;2024-03-23T11:42:45;17.80;;;17.40;;
7231;SDS011;3657;49.630;11.018;2024-03-23T11:45:12;17.43;;;17.03;;
7231;SDS011;3657;49.630;11.018;2024-03-23T11:47:40;18.60;;;18.00;;
7231;SDS011;3657;49.630;11.018;2024-03-23T11:50:07;16.47;;;16.07;;
7231;SDS011;3657;49.630;11.018;2024-03-23T11:52:33;19.40;;;18.90;;
7231;SDS011;3657;49.630;11.018;2024-03-23T11:55:03;17.90;;;17.07;;
7231;SDS011;3657;49.630;11.018;2024-03-23T11:57:30;18.07;;;17.47;;
7231;SDS011;3657;49.630;11.018;2024-03-23T11:59:56;18.67;;;18.07;;
7231;SDS011;3657;49.630;11.018;2024-03-23T12:02:22;18.20;;;17.70;;
7231;SDS011;3657;49.630;11.018;2024-03-23T12:04:50;16.67;;;16.27;;
7231;SDS011;3657;49.630;11.018;2024-03-23T12:07:16;17.73;;;17.20;;
7231;SDS011;3657;49.630;11.018;2024-03-23T12:09:45;17.30;;;16.80;;
7231;SDS011;3657;49.630;11.018;2024-03-23T12:12:13;17.20;;;16.57;;
7231;SDS011;3657;49.630;11.018;2024-03-23T12:14:41;17.33;;;16.70;;
7231;SDS011;3657;49.630;11.018;2024-03-23T12:17:11;18.43;;;17.83;;
7231;SDS011;3657;49.630;11.018;2024-03-23T12:19:38;18.70;;;18.03;;
7231;SDS011;3657;49.630;11.018;2024-03-23T12:22:06;16.60;;;16.13;;
7231;SDS011;3657;49.630;11.018;2024-03-23T12:24:33;17.07;;;16.47;;
7231;SDS011;3657;49.630;11.018;2024-03-23T12:27:00;16.80;;;16.30;;
7231;SDS011;3657;49.630;11.018;2024-03-23T12:29:28;17.87;;;17.17;;
7231;SDS011;3657;49.630;11.018;2024-03-23T12:31:54;17.57;;;17.07;;
7231;SDS011;3657;49.630;11.018;2024-03-23T12:34:21;17.50;;;16.93;;
7231;SDS011;3657;49.630;11.018;2024-03-23T12:36:47;17.80;;;17.30;;
7231;SDS011;3657;49.630;11.018;2024-03-23T12:39:15;18.63;;;18.03;;
7231;SDS011;3657;49.630;11.018;2024-03-23T12:41:41;17.80;;;17.27;;
7231;SDS011;3657;49.630;11.018;2024-03-23T12:44:08;17.67;;;17.07;;
7231;SDS011;3657;49.630;11.018;2024-03-23T12:46:36;18.80;;;18.23;;
7231;SDS011;3657;49.630;11.018;2024-03-23T12:49:03;18.73;;;18.00;;
7231;SDS011;3657;49.630;11.018;2024-03-23T12:51:29;18.17;;;17.60;;
7231;SDS011;3657;49.630;11.018;2024-03-23T12:53:56;18.23;;;17.63;;
7231;SDS011;3657;49.630;11.018;2024-03-23T12:56:23;17.37;;;16.97;;
7231;SDS011;3657;49.630;11.018;2024-03-23T12:58:50;17.30;;;16.70;;
7231;SDS011;3657;49.630;11.018;2024-03-23T13:01:16;17.97;;;17.50;;
7231;SDS011;3657;49.630;11.018;2024-03-23T13:03:45;17.93;;;17.53;;
7231;SDS011;3657;49.630;11.018;2024-03-23T13:06:11;17.73;;;17.17;;
7231;SDS011;3657;49.630;11.018;2024-03-23T13:08:38;17.30;;;16.90;;
7231;SDS011;3657;49.630;11.018;2024-03-23T13:11:05;18.23;;;17.63;;
7231;SDS011;3657;49.630;11.018;2024-03-23T13:13:35;18.50;;;17.67;;
7231;SDS011;3657;49.630;11.018;2024-03-23T13:16:00;17.73;;;17.23;;
7231;SDS011;3657;49.630;11.018;2024-03-23T13:18:27;19.60;;;19.00;;
7231;SDS011;3657;49.630;11.018;2024-03-23T13:20:53;18.33;;;17.33;;
7231;SDS011;3657;49.630;11.018;2024-03-23T13:23:20;17.20;;;16.40;;
7231;SDS011;3657;49.630;11.018;2024-03-23T13:25:49;17.63;;;17.13;;
7231;SDS011;3657;49.630;11.018;2024-03-23T13:28:17;17.23;;;16.63;;
7231;SDS011;3657;49.630;11.018;2024-03-23T13:30:50;18.80;;;18.10;;
7231;SDS011;3657;49.630;11.018;2024-03-23T13:33:17;16.93;;;16.43;;
7231;SDS011;3657;49.630;11.018;2024-03-23T13:35:50;18.23;;;17.67;;
7231;SDS011;3657;49.630;11.018;2024-03-23T13:38:16;18.07;;;17.50;;
7231;SDS011;3657;49.630;11.018;2024-03-23T13:40:49;18.23;;;17.10;;
7231;SDS011;3657;49.630;11.018;2024-03-23T13:43:19;17.30;;;16.80;;
7231;SDS011;3657;49.630;11.018;2024-03-23T13:45:46;19.10;;;18.37;;
7231;SDS011;3657;49.630;11.018;2024-03-23T13:48:14;16.83;;;16.40;;
7231;SDS011;3657;49.630;11.018;2024-03-23T13:50:41;18.20;;;17.50;;
7231;SDS011;3657;49.630;11.018;2024-03-23T13:53:07;16.73;;;16.23;;
7231;SDS011;3657;49.630;11.018;2024-03-23T13:55:33;17.70;;;17.07;;
7231;SDS011;3657;49.630;11.018;2024-03-23T13:58:00;16.67;;;16.23;;
7231;SDS011;3657;49.630;11.018;2024-03-23T14:00:26;17.73;;;17.07;;
7231;SDS011;3657;49.630;11.018;2024-03-23T14:02:53;17.20;;;16.67;;
7231;SDS011;3657;49.630;11.018;2024-03-23T14:05:20;17.20;;;16.80;;
7231;SDS011;3657;49.630;11.018;2024-03-23T14:07:47;18.07;;;17.47;;
7231;SDS011;3657;49.630;11.018;2024-03-23T14:10:12;16.90;;;16.30;;
7231;SDS011;3657;49.630;11.018;2024-03-23T14:12:39;16.87;;;16.27;;
7231;SDS011;3657;49.630;11.018;2024-03-23T14:15:06;17.80;;;17.10;;
7231;SDS011;3657;49.630;11.018;2024-03-23T14:17:34;17.27;;;16.60;;
7231;SDS011;3657;49.630;11.018;2024-03-23T14:20:00;17.10;;;16.50;;
7231;SDS011;3657;49.630;11.018;2024-03-23T14:22:28;17.03;;;16.53;;
7231;SDS011;3657;49.630;11.018;2024-03-23T14:24:54;17.77;;;17.27;;
7231;SDS011;3657;49.630;11.018;2024-03-23T14:27:21;17.90;;;17.47;;
7231;SDS011;3657;49.630;11.018;2024-03-23T14:29:47;17.60;;;16.90;;
7231;SDS011;3657;49.630;11.018;2024-03-23T14:32:14;16.93;;;16.33;;
7231;SDS011;3657;49.630;11.018;2024-03-23T14:34:40;15.73;;;15.43;;
7231;SDS011;3657;49.630;11.018;2024-03-23T14:37:07;17.23;;;16.53;;
7231;SDS011;3657;49.630;11.018;2024-03-23T14:39:34;17.07;;;16.57;;
7231;SDS011;3657;49.630;11.018;2024-03-23T14:42:01;16.30;;;15.80;;
7231;SDS011;3657;49.630;11.018;2024-03-23T14:44:27;17.83;;;17.23;;
7231;SDS011;3657;49.630;11.018;2024-03-23T14:46:54;18.30;;;17.63;;
7231;SDS011;3657;49.630;11.018;2024-03-23T14:49:20;17.67;;;16.83;;
7231;SDS011;3657;49.630;11.018;2024-03-23T14:51:47;17.83;;;17.30;;
7231;SDS011;3657;49.630;11.018;2024-03-23T14:54:13;17.53;;;17.03;;
7231;SDS011;3657;49.630;11.018;2024-03-23T14:56:41;18.83;;;18.03;;
7231;SDS011;3657;49.630;11.018;2024-03-23T14:59:07;18.70;;;18.03;;
7231;SDS011;3657;49.630;11.018;2024-03-23T15:01:33;17.93;;;17.30;;
7231;SDS011;3657;49.630;11.018;2024-03-23T15:03:59;19.90;;;19.27;;
7231;SDS011;3657;49.630;11.018;2024-03-23T15:06:26;18.27;;;17.77;;
7231;SDS011;3657;49.630;11.018;2024-03-23T15:08:52;18.30;;;17.80;;
7231;SDS011;3657;49.630;11.018;2024-03-23T15:11:19;17.10;;;16.40;;
7231;SDS011;3657;49.630;11.018;2024-03-23T15:13:49;19.67;;;19.10;;
7231;SDS011;3657;49.630;11.018;2024-03-23T15:16:16;16.80;;;16.40;;
7231;SDS011;3657;49.630;11.018;2024-03-23T15:18:45;18.60;;;18.00;;
7231;SDS011;3657;49.630;11.018;2024-03-23T15:21:11;17.33;;;16.93;;
7231;SDS011;3657;49.630;11.018;2024-03-23T15:23:40;17.30;;;16.80;;
7231;SDS011;3657;49.630;11.018;2024-03-23T15:26:08;18.07;;;17.67;;
7231;SDS011;3657;49.630;11.018;2024-03-23T15:28:35;19.17;;;18.67;;